createdAt,value
2018-08-23T00:01:26.177Z,39.38
2018-08-23T00:03:57.296Z,39.33
2018-08-23T00:06:26.426Z,40.15
2018-08-23T00:08:57.777Z,39.32
2018-08-23T00:11:33.395Z,39.82
2018-08-23T00:14:02.596Z,39.12
2018-08-23T00:16:44.208Z,39.13
2018-08-23T00:19:13.667Z,39.46
2018-08-23T00:21:46.023Z,39.38
2018-08-23T00:24:24.573Z,39.36
2018-08-23T00:26:58.356Z,39.15
2018-08-23T00:29:28.866Z,38.69
2018-08-23T00:32:07.272Z,38.38
2018-08-23T00:34:38.763Z,39.96
2018-08-23T00:37:08.521Z,42.25
2018-08-23T00:39:37.765Z,40.40
2018-08-23T00:42:08.752Z,41.17
2018-08-23T00:45:07.247Z,42.27
2018-08-23T00:47:36.515Z,42.31
2018-08-23T00:50:05.850Z,43.66
2018-08-23T00:52:44.854Z,42.29
2018-08-23T00:55:18.573Z,42.04
2018-08-23T00:57:48.853Z,42.49
2018-08-23T01:00:21.165Z,43.33
2018-08-23T01:02:51.430Z,43.12
2018-08-23T01:05:25.635Z,43.80
2018-08-23T01:07:54.848Z,42.67
2018-08-23T01:10:24.126Z,42.60
2018-08-23T01:13:03.110Z,42.09
2018-08-23T01:15:33.200Z,41.54
2018-08-23T01:18:10.012Z,40.31
2018-08-23T01:20:40.034Z,39.76
2018-08-23T01:23:09.461Z,39.91
2018-08-23T01:25:43.505Z,39.40
2018-08-23T01:28:12.758Z,38.50
2018-08-23T01:30:42.419Z,39.08
2018-08-23T01:33:20.306Z,38.11
2018-08-23T01:35:50.856Z,37.94
2018-08-23T01:38:20.123Z,37.19
2018-08-23T01:40:49.763Z,36.97
2018-08-23T01:43:19.128Z,39.02
2018-08-23T01:45:48.295Z,40.68
2018-08-23T01:48:18.826Z,40.98
2018-08-23T01:50:48.133Z,41.25
2018-08-23T01:53:20.231Z,39.77
2018-08-23T01:55:49.504Z,38.35
2018-08-23T01:58:18.745Z,38.12
2018-08-23T02:00:51.824Z,37.38
2018-08-23T02:03:21.101Z,37.12
2018-08-23T02:05:50.407Z,36.74
2018-08-23T02:08:19.693Z,35.94
2018-08-23T02:10:48.815Z,36.54
2018-08-23T02:13:24.088Z,35.72
2018-08-23T02:15:53.292Z,35.89
2018-08-23T02:18:22.660Z,36.51
2018-08-23T02:20:56.776Z,37.45
2018-08-23T02:23:26.127Z,36.61
2018-08-23T02:25:55.353Z,37.46
2018-08-23T02:28:24.630Z,37.10
2018-08-23T02:30:55.858Z,37.00
2018-08-23T02:33:25.648Z,37.42
2018-08-23T02:36:04.480Z,37.52
2018-08-23T02:38:34.101Z,37.33
2018-08-23T02:41:03.242Z,37.32
2018-08-23T02:43:32.508Z,36.60
2018-08-23T02:46:03.937Z,36.86
2018-08-23T02:48:33.139Z,36.85
2018-08-23T02:51:02.337Z,37.79
2018-08-23T02:53:38.847Z,38.43
2018-08-23T02:56:10.506Z,38.00
2018-08-23T02:59:01.936Z,37.80
2018-08-23T03:01:33.551Z,37.30
2018-08-23T03:04:15.285Z,36.52
2018-08-23T03:06:50.823Z,47.71
2018-08-23T03:09:22.673Z,39.95
2018-08-23T03:11:52.865Z,39.06
2018-08-23T03:14:23.195Z,38.41
2018-08-23T03:17:28.526Z,38.09
2018-08-23T03:20:13.893Z,36.38
2018-08-23T03:22:44.252Z,37.39
2018-08-23T03:25:14.949Z,38.34
2018-08-23T03:27:45.440Z,42.25
2018-08-23T03:30:15.760Z,43.65
2018-08-23T03:32:44.978Z,38.17
2018-08-23T03:35:14.200Z,39.59
2018-08-23T03:37:43.543Z,40.55
2018-08-23T03:40:13.809Z,39.29
2018-08-23T03:42:43.043Z,38.42
2018-08-23T03:45:17.326Z,39.42
2018-08-23T03:47:53.563Z,38.14
2018-08-23T03:50:22.680Z,37.96
2018-08-23T03:52:54.827Z,38.32
2018-08-23T03:55:25.318Z,38.00
2018-08-23T03:58:00.136Z,36.91
2018-08-23T04:00:34.351Z,37.84
2018-08-23T04:03:06.363Z,36.60
2018-08-23T04:05:35.815Z,35.39
2018-08-23T04:08:04.990Z,35.61
2018-08-23T04:10:35.096Z,35.26
2018-08-23T04:13:04.407Z,35.97
2018-08-23T04:15:33.417Z,35.41
2018-08-23T04:18:14.643Z,34.62
2018-08-23T04:20:59.806Z,35.19
2018-08-23T04:23:29.035Z,36.18
2018-08-23T04:25:58.108Z,36.66
2018-08-23T04:28:27.326Z,38.69
2018-08-23T04:30:56.534Z,42.04
2018-08-23T04:33:25.745Z,38.87
2018-08-23T04:35:55.052Z,44.73
2018-08-23T04:38:24.324Z,44.96
2018-08-23T04:41:00.177Z,45.03
2018-08-23T04:43:29.450Z,46.34
2018-08-23T04:45:58.803Z,48.57
2018-08-23T04:48:28.039Z,48.45
2018-08-23T04:50:57.208Z,47.12
2018-08-23T04:53:26.521Z,45.71
2018-08-23T04:55:55.722Z,51.56
2018-08-23T04:58:25.438Z,50.94
2018-08-23T05:00:55.017Z,47.52
2018-08-23T05:03:24.298Z,48.83
2018-08-23T05:05:53.494Z,50.42
2018-08-23T05:08:22.626Z,48.33
2018-08-23T05:10:51.782Z,48.49
2018-08-23T05:13:20.892Z,47.66
2018-08-23T05:15:50.010Z,46.41
2018-08-23T05:18:19.342Z,47.28
2018-08-23T05:20:48.505Z,46.87
2018-08-23T05:23:18.260Z,47.81
2018-08-23T05:25:47.612Z,49.03
2018-08-23T05:28:18.618Z,49.81
2018-08-23T05:30:49.423Z,49.94
2018-08-23T05:33:23.939Z,48.30
2018-08-23T05:35:53.167Z,48.95
2018-08-23T05:38:22.545Z,52.75
2018-08-23T05:40:58.530Z,50.22
2018-08-23T05:43:27.849Z,48.62
2018-08-23T05:45:57.805Z,48.28
2018-08-23T05:48:32.725Z,51.59
2018-08-23T05:51:11.406Z,50.96
2018-08-23T05:53:48.453Z,53.19
2018-08-23T05:56:18.808Z,48.82
2018-08-23T05:58:47.687Z,46.70
2018-08-23T06:01:16.821Z,47.42
2018-08-23T06:03:45.671Z,49.69
2018-08-23T06:06:14.568Z,51.27
2018-08-23T06:08:48.315Z,51.96
2018-08-23T06:11:17.407Z,50.37
2018-08-23T06:13:46.216Z,52.07
2018-08-23T06:16:15.053Z,52.59
2018-08-23T06:18:44.228Z,53.69
2018-08-23T06:21:13.102Z,51.82
2018-08-23T06:23:59.880Z,51.21
2018-08-23T06:26:39.238Z,52.61
2018-08-23T06:29:08.941Z,49.86
2018-08-23T06:31:46.732Z,51.32
2018-08-23T06:34:15.888Z,50.20
2018-08-23T06:36:45.719Z,47.62
2018-08-23T06:39:14.659Z,47.89
2018-08-23T06:41:43.539Z,49.02
2018-08-23T06:44:12.883Z,47.44
2018-08-23T06:46:41.771Z,47.34
2018-08-23T06:49:10.698Z,48.89
2018-08-23T06:51:39.580Z,48.73
2018-08-23T06:54:08.406Z,46.75
2018-08-23T06:56:38.495Z,47.37
2018-08-23T06:59:08.775Z,44.93
2018-08-23T07:01:54.300Z,44.21
2018-08-23T07:04:23.401Z,42.75
2018-08-23T07:06:52.577Z,43.33
2018-08-23T07:09:21.435Z,44.39
2018-08-23T07:11:50.353Z,44.49
2018-08-23T07:14:20.107Z,44.40
2018-08-23T07:16:50.288Z,41.22
2018-08-23T07:19:33.278Z,41.19
2018-08-23T07:22:03.371Z,40.48
2018-08-23T07:24:43.901Z,38.66
2018-08-23T07:27:14.748Z,41.38
2018-08-23T07:29:48.761Z,38.85
2018-08-23T07:32:19.886Z,37.39
2018-08-23T07:35:02.437Z,38.02
2018-08-23T07:37:32.626Z,37.15
2018-08-23T07:40:06.670Z,37.88
2018-08-23T07:42:36.851Z,40.04
2018-08-23T07:45:06.125Z,37.04
2018-08-23T07:47:37.352Z,38.23
2018-08-23T07:50:06.968Z,35.42
2018-08-23T07:52:36.680Z,36.10
2018-08-23T07:55:06.752Z,35.55
2018-08-23T07:57:36.642Z,34.27
2018-08-23T08:00:16.519Z,33.39
2018-08-23T08:02:45.379Z,35.38
2018-08-23T08:05:14.284Z,37.01
2018-08-23T08:07:43.649Z,35.97
2018-08-23T08:10:17.490Z,34.45
2018-08-23T08:12:51.231Z,33.74
2018-08-23T08:15:20.616Z,36.62
2018-08-23T08:17:50.190Z,33.11
2018-08-23T08:20:19.069Z,31.99
2018-08-23T08:22:47.922Z,32.19
2018-08-23T08:25:19.907Z,33.29
2018-08-23T08:27:49.843Z,36.56
2018-08-23T08:30:23.297Z,33.05
2018-08-23T08:32:52.244Z,33.83
2018-08-23T08:35:21.381Z,33.75
2018-08-23T08:37:50.614Z,35.99
2018-08-23T08:40:24.000Z,35.33
2018-08-23T08:42:52.815Z,35.67
2018-08-23T08:45:21.713Z,34.72
2018-08-23T08:47:50.947Z,35.74
2018-08-23T08:50:26.489Z,32.97
2018-08-23T08:52:56.089Z,37.56
2018-08-23T08:55:24.901Z,34.82
2018-08-23T08:57:53.834Z,36.79
2018-08-23T09:00:22.699Z,38.44
2018-08-23T09:02:51.510Z,38.01
2018-08-23T09:05:20.369Z,36.83
2018-08-23T09:07:49.199Z,37.92
2018-08-23T09:10:19.278Z,36.36
2018-08-23T09:12:48.091Z,36.85
2018-08-23T09:15:16.994Z,36.12
2018-08-23T09:17:46.724Z,35.10
2018-08-23T09:20:19.608Z,35.09
2018-08-23T09:22:49.696Z,38.14
2018-08-23T09:25:27.805Z,38.00
2018-08-23T09:27:56.685Z,37.63
2018-08-23T09:30:31.911Z,34.03
2018-08-23T09:33:05.885Z,33.60
2018-08-23T09:35:35.242Z,32.91
2018-08-23T09:38:09.853Z,34.80
2018-08-23T09:40:38.744Z,34.28
2018-08-23T09:43:08.024Z,33.44
2018-08-23T09:45:37.632Z,33.36
2018-08-23T09:48:06.698Z,33.42
2018-08-23T09:50:35.684Z,33.90
2018-08-23T09:53:10.968Z,32.46
2018-08-23T09:55:39.759Z,34.23
2018-08-23T09:58:12.709Z,33.81
2018-08-23T10:00:47.018Z,34.87
2018-08-23T10:03:20.986Z,36.24
2018-08-23T10:05:54.984Z,34.89
2018-08-23T10:08:28.913Z,34.14
2018-08-23T10:11:02.899Z,34.00
2018-08-23T10:13:36.912Z,33.42
2018-08-23T10:16:10.827Z,32.82
2018-08-23T10:18:44.761Z,34.28
2018-08-23T10:21:15.989Z,32.46
2018-08-23T10:23:44.795Z,31.03
2018-08-23T10:26:28.880Z,34.88
2018-08-23T10:28:58.478Z,33.79
2018-08-23T10:31:27.472Z,34.92
2018-08-23T10:33:56.636Z,34.99
2018-08-23T10:36:25.847Z,31.65
2018-08-23T10:38:54.816Z,34.29
2018-08-23T10:41:23.995Z,32.78
2018-08-23T10:43:52.897Z,32.17
2018-08-23T10:46:21.793Z,31.29
2018-08-23T10:48:51.035Z,33.84
2018-08-23T10:51:20.251Z,34.25
2018-08-23T10:53:49.447Z,32.81
2018-08-23T10:56:18.537Z,34.04
2018-08-23T10:58:47.437Z,31.00
2018-08-23T11:01:16.391Z,30.15
2018-08-23T11:03:45.416Z,29.88
2018-08-23T11:06:14.370Z,30.07
2018-08-23T11:08:43.427Z,29.53
2018-08-23T11:11:45.955Z,30.88
2018-08-23T11:14:20.120Z,30.25
2018-08-23T11:16:54.322Z,32.71
2018-08-23T11:19:28.435Z,33.81
2018-08-23T11:21:57.425Z,33.52
2018-08-23T11:24:26.371Z,31.77
2018-08-23T11:26:55.577Z,31.85
2018-08-23T11:29:24.834Z,33.86
2018-08-23T11:31:54.677Z,31.33
2018-08-23T11:34:23.621Z,31.85
2018-08-23T11:36:52.525Z,30.92
2018-08-23T11:39:21.436Z,31.46
2018-08-23T11:41:50.330Z,31.85
2018-08-23T11:44:19.269Z,30.46
2018-08-23T11:46:48.971Z,30.68
2018-08-23T11:49:17.892Z,29.94
2018-08-23T12:42:15.700Z,35.84
2018-08-23T12:44:49.763Z,36.39
2018-08-23T12:47:19.025Z,34.95
2018-08-23T12:49:49.288Z,33.99
2018-08-23T12:52:19.098Z,33.81
2018-08-23T12:54:48.097Z,34.88
2018-08-23T12:57:16.982Z,33.32
2018-08-23T12:59:45.912Z,32.65
2018-08-23T13:02:14.917Z,31.23
2018-08-23T13:04:43.753Z,31.24
2018-08-23T13:07:12.764Z,31.47
2018-08-23T13:09:41.747Z,31.14
2018-08-23T13:12:10.617Z,32.55
2018-08-23T13:14:39.505Z,31.90
2018-08-23T13:17:08.555Z,34.50
2018-08-23T13:19:37.478Z,33.38
2018-08-23T13:22:08.149Z,35.28
2018-08-23T13:24:42.401Z,32.82
2018-08-23T13:27:11.427Z,32.10
2018-08-23T13:29:40.532Z,32.64
2018-08-23T13:32:09.721Z,33.42
2018-08-23T13:34:39.013Z,34.53
2018-08-23T13:37:08.366Z,31.99
2018-08-23T13:39:37.615Z,34.66
2018-08-23T13:42:06.796Z,34.44
2018-08-23T13:44:35.916Z,33.31
2018-08-23T13:47:05.398Z,35.46
2018-08-23T13:49:34.534Z,35.22
2018-08-23T13:52:05.474Z,34.92
2018-08-23T13:54:34.910Z,33.16
2018-08-23T13:57:04.086Z,33.35
2018-08-23T13:59:33.318Z,34.09
2018-08-23T14:02:02.757Z,33.34
2018-08-23T14:04:31.905Z,32.62
2018-08-23T14:07:01.098Z,33.17
2018-08-23T14:09:32.256Z,33.54
2018-08-23T14:12:01.523Z,33.38
2018-08-23T14:14:31.849Z,34.76
2018-08-23T14:17:01.648Z,35.85
2018-08-23T14:19:31.135Z,33.47
2018-08-23T14:22:00.372Z,33.86
2018-08-23T14:24:29.895Z,32.93
2018-08-23T14:26:59.502Z,33.20
2018-08-23T14:29:29.178Z,33.89
2018-08-23T14:31:58.694Z,34.10
2018-08-23T14:34:28.094Z,34.16
2018-08-23T14:36:57.785Z,33.37
2018-08-23T14:39:27.475Z,35.55
2018-08-23T14:41:56.651Z,34.60
2018-08-23T14:44:26.020Z,32.99
2018-08-23T14:47:00.396Z,33.06
2018-08-23T14:49:36.359Z,32.10
2018-08-23T14:52:07.734Z,33.63
2018-08-23T14:54:40.908Z,33.38
2018-08-23T14:57:15.382Z,33.69
2018-08-23T14:59:45.093Z,35.13
2018-08-23T15:02:14.981Z,35.36
2018-08-23T15:04:47.847Z,33.13
2018-08-23T15:07:17.461Z,33.02
2018-08-23T15:09:46.931Z,32.66
2018-08-23T15:12:16.384Z,32.84
2018-08-23T15:14:45.692Z,31.30
2018-08-23T15:17:15.259Z,31.54
2018-08-23T15:19:44.850Z,32.53
2018-08-23T15:22:14.245Z,32.99
2018-08-23T15:24:48.404Z,33.80
2018-08-23T15:27:18.282Z,33.48
2018-08-23T15:29:47.694Z,32.78
2018-08-23T15:32:17.191Z,33.94
2018-08-23T15:34:46.993Z,33.76
2018-08-23T15:37:16.908Z,32.70
2018-08-23T15:39:46.603Z,33.33
2018-08-23T15:42:16.684Z,32.82
2018-08-23T15:44:47.403Z,32.84
2018-08-23T15:47:19.342Z,33.33
2018-08-23T15:49:49.440Z,35.51
2018-08-23T15:52:21.420Z,34.18
2018-08-23T15:54:51.485Z,34.69
2018-08-23T15:57:21.533Z,36.25
2018-08-23T15:59:53.808Z,35.06
2018-08-23T16:02:23.977Z,35.53
2018-08-23T16:04:55.889Z,36.46
2018-08-23T16:07:26.553Z,35.03
2018-08-23T16:09:56.487Z,37.15
2018-08-23T16:12:27.018Z,37.43
2018-08-23T16:14:56.311Z,36.28
2018-08-23T16:17:30.991Z,35.71
2018-08-23T16:20:05.715Z,36.66
2018-08-23T16:22:35.415Z,35.22
2018-08-23T16:25:04.640Z,36.19
2018-08-23T16:27:33.633Z,35.67
2018-08-23T16:30:02.740Z,35.81
2018-08-23T16:32:33.826Z,37.00
2018-08-23T16:35:02.808Z,35.93
2018-08-23T16:37:32.953Z,37.46
2018-08-23T16:40:02.009Z,37.37
2018-08-23T16:42:31.494Z,37.62
2018-08-23T16:45:00.826Z,37.63
2018-08-23T16:47:29.784Z,37.83
2018-08-23T16:49:58.778Z,38.36
2018-08-23T16:52:27.959Z,38.01
2018-08-23T16:54:56.927Z,38.66
2018-08-23T16:57:26.022Z,37.67
2018-08-23T16:59:54.975Z,37.65
2018-08-23T17:02:23.915Z,37.50
2018-08-23T17:04:52.867Z,37.70
2018-08-23T17:07:21.879Z,37.14
2018-08-23T17:09:50.843Z,37.78
2018-08-23T17:12:19.837Z,38.16
2018-08-23T17:14:48.947Z,36.87
2018-08-23T17:17:23.061Z,37.37
2018-08-23T17:19:52.346Z,38.14
2018-08-23T17:22:21.317Z,38.66
2018-08-23T17:24:50.354Z,38.37
2018-08-23T17:27:19.313Z,38.62
2018-08-23T17:29:48.963Z,39.28
2018-08-23T17:32:17.988Z,39.24
2018-08-23T17:34:47.021Z,39.83
2018-08-23T17:37:16.139Z,39.59
2018-08-23T17:39:45.116Z,39.94
2018-08-23T17:42:14.145Z,38.97
2018-08-23T17:44:43.145Z,38.98
2018-08-23T17:47:12.207Z,39.36
2018-08-23T17:49:41.216Z,39.40
2018-08-23T17:52:10.322Z,39.03
2018-08-23T17:54:40.036Z,39.67
2018-08-23T17:57:09.101Z,39.60
2018-08-23T17:59:38.093Z,39.94
2018-08-23T18:02:07.269Z,39.81
2018-08-23T18:04:36.288Z,39.13
2018-08-23T18:07:05.292Z,39.17
2018-08-23T18:09:34.345Z,39.29
2018-08-23T18:12:03.414Z,39.31
2018-08-23T18:14:32.385Z,38.97
2018-08-23T18:17:02.145Z,39.33
2018-08-23T18:19:31.178Z,38.99
2018-08-23T18:22:00.189Z,38.61
2018-08-23T18:24:29.255Z,39.15
2018-08-23T18:26:58.571Z,39.06
2018-08-23T18:29:27.533Z,39.63
2018-08-23T18:31:56.553Z,39.70
2018-08-23T18:34:25.626Z,40.02
2018-08-23T18:36:54.524Z,43.45
2018-08-23T18:39:23.458Z,43.17
2018-08-23T18:41:52.485Z,42.53
2018-08-23T18:44:22.032Z,41.08
2018-08-23T18:46:51.038Z,41.22
2018-08-23T18:49:20.029Z,40.92
2018-08-23T18:51:48.978Z,40.52
2018-08-23T18:54:17.999Z,40.93
2018-08-23T18:56:47.330Z,40.75
2018-08-23T18:59:16.253Z,39.26
2018-08-23T19:01:45.242Z,42.17
2018-08-23T19:04:14.247Z,40.91
2018-08-23T19:06:43.205Z,41.16
2018-08-23T19:09:13.892Z,41.06
2018-08-23T19:11:43.153Z,41.91
2018-08-23T19:14:12.096Z,42.79
2018-08-23T19:16:46.257Z,42.79
2018-08-23T19:19:15.197Z,42.45
2018-08-23T19:21:44.170Z,43.58
2018-08-23T19:24:13.103Z,43.59
2018-08-23T19:26:42.379Z,44.39
2018-08-23T19:29:11.313Z,44.12
2018-08-23T19:31:40.321Z,44.19
2018-08-23T19:34:09.250Z,44.84
2018-08-23T19:36:38.227Z,44.56
2018-08-23T19:39:10.433Z,43.69
2018-08-23T19:41:39.472Z,44.80
2018-08-23T19:44:08.474Z,45.51
2018-08-23T19:46:42.586Z,45.39
2018-08-23T19:49:16.528Z,44.76
2018-08-23T19:51:45.537Z,45.05
2018-08-23T19:54:14.467Z,45.34
2018-08-23T19:56:44.203Z,45.34
2018-08-23T19:59:13.208Z,46.24
2018-08-23T20:01:42.108Z,46.96
2018-08-23T20:04:11.079Z,47.62
2018-08-23T20:06:40.020Z,45.37
2018-08-23T20:09:10.214Z,47.86
2018-08-23T20:11:39.208Z,47.53
2018-08-23T20:14:08.213Z,50.33
2018-08-23T20:16:37.165Z,50.00
2018-08-23T20:19:06.249Z,50.17
2018-08-23T20:21:35.219Z,51.53
2018-08-23T20:24:04.219Z,51.34
2018-08-23T20:26:33.204Z,52.08
2018-08-23T20:29:02.233Z,51.71
2018-08-23T20:31:31.228Z,51.80
2018-08-23T20:34:00.186Z,50.66
2018-08-23T20:36:29.133Z,50.25
2018-08-23T20:38:58.263Z,50.69
2018-08-23T20:41:27.222Z,51.76
2018-08-23T20:43:56.241Z,52.98
2018-08-23T20:46:25.494Z,54.41
2018-08-23T20:48:54.401Z,54.89
2018-08-23T20:51:23.601Z,55.89
2018-08-23T20:53:52.492Z,55.10
2018-08-23T20:56:21.420Z,56.07
2018-08-23T20:58:50.764Z,56.37
2018-08-23T21:01:19.726Z,56.12
2018-08-23T21:03:48.676Z,55.75
2018-08-23T21:06:17.943Z,54.66
2018-08-23T21:08:46.897Z,55.02
2018-08-23T21:11:15.966Z,54.22
2018-08-23T21:13:45.509Z,55.47
2018-08-23T21:16:14.538Z,55.02
2018-08-23T21:18:43.601Z,55.57
2018-08-23T21:21:12.539Z,57.01
2018-08-23T21:23:41.525Z,57.47
2018-08-23T21:26:10.443Z,55.91
2018-08-23T21:28:39.892Z,56.50
2018-08-23T21:31:08.934Z,56.91
2018-08-23T21:33:37.932Z,57.14
2018-08-23T21:36:07.362Z,56.51
2018-08-23T21:38:36.352Z,56.41
2018-08-23T21:41:05.330Z,55.96
2018-08-23T21:43:34.358Z,57.15
2018-08-23T21:46:03.330Z,56.63
2018-08-23T21:48:32.297Z,57.27
2018-08-23T21:51:01.570Z,55.94
2018-08-23T21:53:30.535Z,57.12
2018-08-23T21:55:59.510Z,56.12
2018-08-23T21:58:28.439Z,55.71
2018-08-23T22:01:02.635Z,55.68
2018-08-23T22:03:31.847Z,57.39
2018-08-23T22:06:00.816Z,57.06
2018-08-23T22:08:29.833Z,59.65
2018-08-23T22:10:58.800Z,60.91
2018-08-23T22:13:27.721Z,61.19
2018-08-23T22:15:56.639Z,62.82
2018-08-23T22:18:26.038Z,61.07
2018-08-23T22:20:54.972Z,65.27
2018-08-23T22:23:23.975Z,65.48
2018-08-23T22:25:52.941Z,66.43
2018-08-23T22:28:21.857Z,66.18
2018-08-23T22:30:50.772Z,64.83
2018-08-23T22:33:20.106Z,66.49
2018-08-23T22:35:49.049Z,69.94
2018-08-23T22:38:17.961Z,71.59
2018-08-23T22:40:46.961Z,72.83
2018-08-23T22:43:15.921Z,74.16
2018-08-23T22:45:44.852Z,72.38
2018-08-23T22:48:14.115Z,70.44
2018-08-23T22:50:43.055Z,71.64
2018-08-23T22:53:11.984Z,69.17
2018-08-23T22:55:41.150Z,71.90
2018-08-23T22:58:10.178Z,73.54
2018-08-23T23:00:43.082Z,68.16
2018-08-23T23:03:17.060Z,66.20
2018-08-23T23:05:46.015Z,63.84
2018-08-23T23:08:15.032Z,69.33
2018-08-23T23:10:43.987Z,75.10
2018-08-23T23:13:13.296Z,72.08
2018-08-23T23:15:42.513Z,69.15
2018-08-23T23:18:11.512Z,71.01
2018-08-23T23:20:40.450Z,69.00
2018-08-23T23:23:09.305Z,70.07
2018-08-23T23:25:38.471Z,71.85
2018-08-23T23:28:07.767Z,74.69
2018-08-23T23:30:36.800Z,75.27
2018-08-23T23:33:05.720Z,75.21
2018-08-23T23:35:34.968Z,75.67
2018-08-23T23:38:03.926Z,76.33
2018-08-23T23:40:32.873Z,76.69
2018-08-23T23:43:01.883Z,73.64
2018-08-23T23:45:30.826Z,73.53
2018-08-23T23:47:59.741Z,73.86
2018-08-23T23:50:29.146Z,73.33
2018-08-23T23:52:58.070Z,72.90
2018-08-23T23:55:27.018Z,71.73
2018-08-23T23:57:56.446Z,71.09
